SBFN Informações do Aeroporto

Informações da Pista
Pista 12 Comprimento 6053 ft Largura 148 ft
Elevação ft Limite ft Heading 0
Pista 30 Comprimento 6053 ft Largura 148 ft
Elevação ft Limite ft Heading 0
Frequências do Aeroporto
Tipo AFIS Nome NORONHA RD Frequência 125.9 MHZ
Navaids do Aeroporto
Tipo VOR-DME Nome Fernando Frequência 113700 KHZ
Tipo NDB Nome Noronha Frequência 300 KHZ
Informações meteorológicas do aeroporto e NOTAM
ADDS - METARS form results

(2047 UTC 14 August 2022)
Data provider http://aviationweather.gov/metar/data/
 
METAR text: SBFN 142037Z AUTO 15016KT 100V170 9000 +RA BKN017 BKN045 25/22 Q1014
Conditions at: SBFN (FERNANDO DE NORO, BR) observed 2037 UTC 14 August 2022
Temperature: 25.0°C (77°F)
Dewpoint: 22.0°C (72°F) [RH = 83%]
Pressure (altimeter): 29.94 inches Hg (1014.0 mb)
Winds: from the SSE (150 degrees) at 18 MPH (16 knots; 8.2 m/s)
Visibility: 6 miles ( 9 km)
Ceiling: 1700 feet AGL
Clouds: broken clouds at 1700 feet AGL
broken clouds at 4500 feet AGL
Weather: +RA  (heavy rain)

METAR text: SBFN 142000Z AUTO 15012KT 9999 BKN024 26/22 Q1014
Conditions at: SBFN (FERNANDO DE NORO, BR) observed 2000 UTC 14 August 2022
Temperature: 26.0°C (79°F)
Dewpoint: 22.0°C (72°F) [RH = 79%]
Pressure (altimeter): 29.94 inches Hg (1014.0 mb)
Winds: from the SSE (150 degrees) at 14 MPH (12 knots; 6.2 m/s)
Visibility: 6 or more miles (10+ km)
Ceiling: 2400 feet AGL
Clouds: broken clouds at 2400 feet AGL
Weather: no significant weather observed at this time

Forecast for: SBFN (FERNANDO DE NORO, BR)
Text: TAF SBFN 141500Z 1418/1506 15015KT 9999 SCT020 TX28/1418Z TN25/1505Z
Forecast period: 1800 UTC 14 August 2022 to 0600 UTC 15 August 2022
Forecast type: FROM: standard forecast or significant change
Winds: from the SSE (150 degrees) at 17 MPH (15 knots; 7.7 m/s)
Visibility: 6 or more miles (10+ km)
Ceiling: at least 12,000 feet AGL
Clouds: scattered clouds at 2000 feet AGL
Weather: no significant weather forecast for this period
Text: TEMPO 1420/1422 6000 RMK PGX
Forecast period: 2000 to 2200 UTC 14 August 2022
Forecast type: TEMPORARY: The following changes expected for less than half the time period
Visibility: 4 miles (6 km)
Ceiling: unknown
Clouds: missing
Weather: no significant weather forecast for this period